createdAt,value
2022-11-12T00:02:19.634Z,29.70
2022-11-12T00:05:06.265Z,23.75
2022-11-12T00:07:52.483Z,24.63
2022-11-12T00:10:38.616Z,26.55
2022-11-12T00:13:24.269Z,25.33
2022-11-12T00:16:10.378Z,22.88
2022-11-12T00:18:55.997Z,24.85
2022-11-12T00:21:42.486Z,26.95
2022-11-12T00:24:28.332Z,23.75
2022-11-12T00:27:14.403Z,23.48
2022-11-12T00:30:00.700Z,27.13
2022-11-12T00:32:47.133Z,24.60
2022-11-12T00:35:33.535Z,24.33
2022-11-12T00:38:19.499Z,21.73
2022-11-12T00:41:05.634Z,23.10
2022-11-12T00:43:56.285Z,24.85
2022-11-12T00:46:42.442Z,22.20
2022-11-12T00:49:28.856Z,23.67
2022-11-12T00:52:15.058Z,26.67
2022-11-12T00:55:01.860Z,20.10
2022-11-12T00:57:47.911Z,23.05
2022-11-12T01:00:34.006Z,20.52
2022-11-12T01:03:20.307Z,23.75
2022-11-12T01:06:09.027Z,22.02
2022-11-12T01:08:55.712Z,24.15
2022-11-12T01:11:41.676Z,19.95
2022-11-12T01:14:27.272Z,23.73
2022-11-12T01:17:13.170Z,21.90
2022-11-12T01:19:59.541Z,20.58
2022-11-12T01:22:45.860Z,21.80
2022-11-12T01:25:31.537Z,22.00
2022-11-12T01:28:17.535Z,24.75
2022-11-12T01:31:27.217Z,17.50
2022-11-12T01:34:13.589Z,22.40
2022-11-12T01:36:59.472Z,21.67
2022-11-12T01:39:45.509Z,19.20
2022-11-12T01:42:33.193Z,22.42
2022-11-12T01:45:19.538Z,22.38
2022-11-12T01:48:05.615Z,24.00
2022-11-12T01:50:52.333Z,23.58
2022-11-12T01:53:42.480Z,24.45
2022-11-12T01:56:30.497Z,23.70
2022-11-12T01:59:23.740Z,21.73
2022-11-12T02:02:11.289Z,23.77
2022-11-12T02:04:57.946Z,21.95
2022-11-12T02:07:45.644Z,30.98
2022-11-12T02:10:31.721Z,22.40
2022-11-12T02:13:37.162Z,27.55
2022-11-12T02:16:23.274Z,25.60
2022-11-12T02:19:12.256Z,31.33
2022-11-12T02:21:58.060Z,24.25
2022-11-12T02:24:44.550Z,24.27
2022-11-12T02:27:30.599Z,25.05
2022-11-12T02:30:17.344Z,26.83
2022-11-12T02:33:04.108Z,25.35
2022-11-12T02:35:50.300Z,37.97
2022-11-12T02:38:36.205Z,27.63
2022-11-12T02:41:22.738Z,24.90
2022-11-12T02:44:08.709Z,26.45
2022-11-12T02:46:54.950Z,30.35
2022-11-12T02:49:41.100Z,30.85
2022-11-12T02:52:27.297Z,29.73
2022-11-12T02:55:13.957Z,29.73
2022-11-12T02:58:00.771Z,27.48
2022-11-12T03:00:47.560Z,27.90
2022-11-12T03:03:33.910Z,31.20
2022-11-12T03:06:19.694Z,34.60
2022-11-12T03:09:05.518Z,31.45
2022-11-12T03:11:51.240Z,32.83
2022-11-12T03:14:37.405Z,30.05
2022-11-12T03:17:23.581Z,31.25
2022-11-12T03:20:11.145Z,28.52
2022-11-12T03:23:02.439Z,26.60
2022-11-12T03:25:48.405Z,30.10
2022-11-12T03:28:34.190Z,35.55
2022-11-12T03:31:20.481Z,33.13
2022-11-12T03:34:06.224Z,27.83
2022-11-12T03:36:52.202Z,33.97
2022-11-12T03:39:38.173Z,34.55
2022-11-12T03:42:24.505Z,30.08
2022-11-12T03:45:10.616Z,32.20
2022-11-12T03:47:58.380Z,33.55
2022-11-12T03:50:44.279Z,32.97
2022-11-12T03:53:30.784Z,34.03
2022-11-12T03:56:16.316Z,34.00
2022-11-12T03:59:02.540Z,32.90
2022-11-12T04:01:48.568Z,35.42
2022-11-12T04:04:53.377Z,33.05
2022-11-12T04:07:58.026Z,32.20
2022-11-12T04:10:44.223Z,32.33
2022-11-12T04:13:30.515Z,27.77
2022-11-12T04:16:37.567Z,33.90
2022-11-12T04:19:41.753Z,33.60
2022-11-12T04:22:27.828Z,32.92
2022-11-12T04:25:32.306Z,34.95
2022-11-12T04:28:18.574Z,34.13
2022-11-12T04:31:04.522Z,33.08
2022-11-12T04:33:50.755Z,31.23
2022-11-12T04:36:36.866Z,33.17
2022-11-12T04:39:22.770Z,32.40
2022-11-12T04:42:28.622Z,28.98
2022-11-12T04:45:15.040Z,31.27
2022-11-12T04:48:01.036Z,31.25
2022-11-12T04:50:50.148Z,33.72
2022-11-12T04:53:36.166Z,32.42
2022-11-12T04:56:22.528Z,34.35
2022-11-12T04:59:08.615Z,35.75
2022-11-12T05:01:54.590Z,31.00
2022-11-12T05:04:40.367Z,34.83
2022-11-12T05:07:26.662Z,35.22
2022-11-12T05:10:12.450Z,33.10
2022-11-12T05:12:58.914Z,37.20
2022-11-12T05:15:45.006Z,37.17
2022-11-12T05:18:31.007Z,35.92
2022-11-12T05:21:40.575Z,38.65
2022-11-12T05:24:41.703Z,39.65
2022-11-12T05:27:28.350Z,38.83
2022-11-12T05:30:14.617Z,39.78
2022-11-12T05:33:00.208Z,39.00
2022-11-12T05:35:46.037Z,34.42
2022-11-12T05:38:32.232Z,39.88
2022-11-12T05:41:20.314Z,38.03
2022-11-12T05:44:06.256Z,33.38
2022-11-12T05:46:52.964Z,41.65
2022-11-12T05:49:39.333Z,40.78
2022-11-12T05:52:25.767Z,39.63
2022-11-12T05:55:11.716Z,37.75
2022-11-12T05:57:57.891Z,40.65
2022-11-12T06:00:43.745Z,48.13
2022-11-12T06:03:30.033Z,41.75
2022-11-12T06:06:16.030Z,49.88
2022-11-12T06:09:02.522Z,46.85
2022-11-12T06:11:48.750Z,45.08
2022-11-12T06:14:34.974Z,42.13
2022-11-12T06:17:21.695Z,42.42
2022-11-12T06:20:08.800Z,41.90
2022-11-12T06:22:54.724Z,45.13
2022-11-12T06:25:41.128Z,41.35
2022-11-12T06:28:27.716Z,41.28
2022-11-12T06:31:14.630Z,40.03
2022-11-12T06:34:00.539Z,39.25
2022-11-12T06:36:48.916Z,42.00
2022-11-12T06:39:34.748Z,38.58
2022-11-12T06:42:21.249Z,42.65
2022-11-12T06:45:08.064Z,44.78
2022-11-12T06:47:58.505Z,43.75
2022-11-12T06:50:44.476Z,42.53
2022-11-12T06:53:30.820Z,42.13
2022-11-12T06:56:16.773Z,46.45
2022-11-12T06:59:03.131Z,46.00
2022-11-12T07:01:49.298Z,43.05
2022-11-12T07:04:35.423Z,47.03
2022-11-12T07:07:21.545Z,47.92
2022-11-12T07:10:08.565Z,49.15
2022-11-12T07:12:54.966Z,43.72
2022-11-12T07:15:41.413Z,45.63
2022-11-12T07:18:28.699Z,43.92
2022-11-12T07:21:17.180Z,47.33
2022-11-12T07:24:02.747Z,52.90
2022-11-12T07:26:48.804Z,52.70
2022-11-12T07:29:47.478Z,54.03
2022-11-12T07:32:38.647Z,53.58
2022-11-12T07:35:29.307Z,58.85
2022-11-12T07:38:15.472Z,56.63
2022-11-12T07:41:04.125Z,54.97
2022-11-12T07:43:52.055Z,55.83
2022-11-12T07:46:38.261Z,59.17
2022-11-12T07:49:24.491Z,57.55
2022-11-12T07:52:10.058Z,57.78
2022-11-12T07:54:56.192Z,60.75
2022-11-12T07:57:42.003Z,55.60
2022-11-12T08:00:28.165Z,57.90
2022-11-12T08:03:14.130Z,58.78
2022-11-12T08:06:01.517Z,49.63
2022-11-12T08:08:47.676Z,52.22
2022-11-12T08:11:34.730Z,55.28
2022-11-12T08:14:21.096Z,56.03
2022-11-12T08:17:07.531Z,60.67
2022-11-12T08:19:55.342Z,53.55
2022-11-12T08:22:45.064Z,58.67
2022-11-12T08:25:35.030Z,59.53
2022-11-12T08:28:21.502Z,54.05
2022-11-12T08:31:16.091Z,55.50
2022-11-12T08:34:12.445Z,59.90
2022-11-12T08:36:58.812Z,57.78
2022-11-12T08:39:45.388Z,59.80
2022-11-12T08:42:31.168Z,55.47
2022-11-12T08:45:17.209Z,56.22
2022-11-12T08:48:05.967Z,61.45
2022-11-12T08:50:52.204Z,57.75
2022-11-12T08:53:38.179Z,57.78
2022-11-12T08:56:24.531Z,62.90
2022-11-12T08:59:10.450Z,54.92
2022-11-12T09:01:56.827Z,60.95
2022-11-12T09:04:42.651Z,55.95
2022-11-12T09:07:48.805Z,60.35
2022-11-12T09:10:34.550Z,56.97
2022-11-12T09:13:21.212Z,62.90
2022-11-12T09:16:08.021Z,59.97
2022-11-12T09:18:53.994Z,58.33
2022-11-12T09:21:40.501Z,60.58
2022-11-12T09:24:27.304Z,58.47
2022-11-12T09:27:12.948Z,58.55
2022-11-12T09:29:59.336Z,60.20
2022-11-12T09:32:45.096Z,56.15
2022-11-12T09:35:31.104Z,52.45
2022-11-12T09:38:18.289Z,55.28
2022-11-12T09:41:18.078Z,53.50
2022-11-12T09:44:09.280Z,59.05
2022-11-12T09:47:08.261Z,56.78
2022-11-12T09:50:02.122Z,50.97
2022-11-12T09:52:50.740Z,49.78
2022-11-12T09:55:43.322Z,53.17
2022-11-12T09:58:30.050Z,55.75
2022-11-12T10:01:38.085Z,46.42
2022-11-12T10:04:46.619Z,50.40
2022-11-12T10:07:51.121Z,41.30
2022-11-12T10:10:49.091Z,45.65
2022-11-12T10:14:08.286Z,55.78
2022-11-12T10:17:19.369Z,48.38
2022-11-12T10:20:23.845Z,49.08
2022-11-12T10:23:20.133Z,48.88
2022-11-12T10:26:18.017Z,59.05
2022-11-12T10:29:23.082Z,60.10
2022-11-12T10:32:14.480Z,48.00
2022-11-12T10:35:00.545Z,49.17
2022-11-12T10:37:51.264Z,44.72
2022-11-12T10:40:41.605Z,47.30
2022-11-12T10:43:27.599Z,46.72
2022-11-12T10:46:20.573Z,48.35
2022-11-12T10:49:18.254Z,47.45
2022-11-12T10:52:04.805Z,46.67
2022-11-12T10:55:21.542Z,46.78
2022-11-12T10:58:16.732Z,45.88
2022-11-12T11:01:05.512Z,59.00
2022-11-12T11:03:56.339Z,53.33
2022-11-12T11:06:42.196Z,66.90
2022-11-12T11:09:28.362Z,54.03
2022-11-12T11:12:28.812Z,47.83
2022-11-12T11:15:24.350Z,48.33
2022-11-12T11:18:13.506Z,40.80
2022-11-12T11:21:21.314Z,43.20
2022-11-12T11:24:30.250Z,44.38
2022-11-12T11:27:54.233Z,51.75
2022-11-12T11:31:07.878Z,38.05
2022-11-12T11:37:26.135Z,37.85
2022-11-12T11:43:09.460Z,41.45
2022-11-12T11:46:21.022Z,40.30
2022-11-12T11:49:28.509Z,46.05
2022-11-12T11:52:52.441Z,50.72
2022-11-12T11:55:49.598Z,43.35
2022-11-12T11:59:01.944Z,44.00
2022-11-12T12:02:12.453Z,47.60
2022-11-12T12:05:26.659Z,50.88
2022-11-12T12:08:35.160Z,48.88
2022-11-12T12:11:49.010Z,48.53
2022-11-12T12:14:50.921Z,42.92
2022-11-12T12:17:43.135Z,33.58
2022-11-12T12:20:39.048Z,33.17
2022-11-12T12:23:42.027Z,29.70
2022-11-12T12:26:35.847Z,35.20
2022-11-12T12:29:27.904Z,32.35
2022-11-12T12:32:23.112Z,33.38
2022-11-12T12:35:24.621Z,35.22
2022-11-12T12:38:47.586Z,32.25
2022-11-12T12:42:04.929Z,30.83
2022-11-12T12:45:36.488Z,37.38
2022-11-12T12:48:29.932Z,39.38
2022-11-12T12:51:16.317Z,41.25
2022-11-12T12:54:02.482Z,33.50
2022-11-12T12:56:48.612Z,35.85
2022-11-12T12:59:34.950Z,34.42
2022-11-12T13:02:24.872Z,39.25
2022-11-12T13:05:27.965Z,44.58
2022-11-12T13:08:20.274Z,32.83
2022-11-12T13:11:06.844Z,37.10
2022-11-12T13:13:52.644Z,35.88
2022-11-12T13:16:51.268Z,30.98
2022-11-12T13:19:46.649Z,31.38
2022-11-12T13:22:32.693Z,33.20
2022-11-12T13:25:18.396Z,35.78
2022-11-12T13:28:07.055Z,33.50
2022-11-12T13:30:52.700Z,34.88
2022-11-12T13:33:39.285Z,32.53
2022-11-12T13:36:27.263Z,32.80
2022-11-12T13:39:19.405Z,71.00
2022-11-12T13:42:36.947Z,132.20
2022-11-12T13:45:25.737Z,78.03
2022-11-12T13:48:36.913Z,132.75
2022-11-12T13:51:26.881Z,220.70
2022-11-12T13:54:31.531Z,130.52
2022-11-12T13:57:21.060Z,50.55
2022-11-12T14:00:26.907Z,42.25
2022-11-12T14:03:17.983Z,39.70
2022-11-12T14:06:15.948Z,41.78
2022-11-12T14:09:24.171Z,31.35
2022-11-12T14:12:31.810Z,72.38
2022-11-12T14:16:02.602Z,49.65
2022-11-12T14:19:16.245Z,44.60
2022-11-12T14:22:13.382Z,41.97
2022-11-12T14:25:01.105Z,31.70
2022-11-12T14:27:51.540Z,37.28
2022-11-12T14:30:44.017Z,41.15
2022-11-12T14:33:31.892Z,35.10
2022-11-12T14:36:19.194Z,39.95
2022-11-12T14:39:06.843Z,41.28
2022-11-12T14:41:53.014Z,47.38
2022-11-12T14:44:39.360Z,42.42
2022-11-12T14:47:25.411Z,35.95
2022-11-12T14:50:21.345Z,46.55
2022-11-12T14:53:13.841Z,43.97
2022-11-12T14:56:01.473Z,35.65
2022-11-12T14:58:47.610Z,37.75
2022-11-12T15:04:45.247Z,41.08
2022-11-12T15:07:50.778Z,38.90
2022-11-12T15:10:43.566Z,39.20
2022-11-12T15:13:38.198Z,38.53
2022-11-12T15:16:27.839Z,43.30
2022-11-12T15:19:15.226Z,40.38
2022-11-12T15:22:02.617Z,44.78
2022-11-12T15:24:49.936Z,40.35
2022-11-12T15:27:41.937Z,38.22
2022-11-12T15:30:30.771Z,43.67
2022-11-12T15:33:21.856Z,38.53
2022-11-12T15:36:19.736Z,44.83
2022-11-12T15:39:12.815Z,42.00
2022-11-12T15:42:14.542Z,41.88
2022-11-12T15:45:03.515Z,41.30
2022-11-12T15:47:50.132Z,42.65
2022-11-12T15:50:36.347Z,44.83
2022-11-12T15:53:23.182Z,40.60
2022-11-12T15:56:12.897Z,44.60
2022-11-12T15:58:59.100Z,42.53
2022-11-12T16:01:44.856Z,49.22
2022-11-12T16:04:31.514Z,43.97
2022-11-12T16:07:17.465Z,44.88
2022-11-12T16:10:04.167Z,43.38
2022-11-12T16:12:51.330Z,45.28
2022-11-12T16:15:37.689Z,52.25
2022-11-12T16:18:23.867Z,50.45
2022-11-12T16:21:10.340Z,52.03
2022-11-12T16:23:56.502Z,48.92
2022-11-12T16:26:43.088Z,46.13
2022-11-12T16:29:29.224Z,48.95
2022-11-12T16:32:15.504Z,46.65
2022-11-12T16:35:01.799Z,44.88
2022-11-12T16:37:48.971Z,50.10
2022-11-12T16:40:35.033Z,47.42
2022-11-12T16:43:21.383Z,48.35
2022-11-12T16:46:15.532Z,43.92
2022-11-12T16:49:01.954Z,50.75
2022-11-12T16:51:48.616Z,52.08
2022-11-12T16:54:35.005Z,42.10
2022-11-12T16:57:21.293Z,48.85
2022-11-12T17:00:10.966Z,45.38
2022-11-12T17:02:57.007Z,38.53
2022-11-12T17:05:43.454Z,38.92
2022-11-12T17:08:33.763Z,46.75
2022-11-12T17:11:20.164Z,47.00
2022-11-12T17:14:06.964Z,48.83
2022-11-12T17:16:53.449Z,58.00
2022-11-12T17:19:39.384Z,59.20
2022-11-12T17:22:25.770Z,52.95
2022-11-12T17:25:11.854Z,53.45
2022-11-12T17:27:57.757Z,57.38
2022-11-12T17:30:43.443Z,48.22
2022-11-12T17:33:30.012Z,52.17
2022-11-12T17:36:21.780Z,46.20
2022-11-12T17:39:10.832Z,48.72
2022-11-12T17:41:56.902Z,52.60
2022-11-12T17:44:43.244Z,50.42
2022-11-12T17:47:29.452Z,48.13
2022-11-12T17:50:15.954Z,48.78
2022-11-12T17:53:02.037Z,48.67
2022-11-12T17:55:48.334Z,51.38
2022-11-12T17:58:34.403Z,53.45
2022-11-12T18:01:22.301Z,45.25
2022-11-12T18:04:10.950Z,46.28
2022-11-12T18:06:57.543Z,47.78
2022-11-12T18:09:43.537Z,51.42
2022-11-12T18:12:29.365Z,46.70
2022-11-12T18:15:17.183Z,43.88
2022-11-12T18:18:04.715Z,48.33
2022-11-12T18:20:50.971Z,41.90
2022-11-12T18:23:38.730Z,45.47
2022-11-12T18:26:24.662Z,51.75
2022-11-12T18:29:10.785Z,48.45
2022-11-12T18:31:57.033Z,44.75
2022-11-12T18:34:45.333Z,40.90
2022-11-12T18:37:30.936Z,43.47
2022-11-12T18:40:17.753Z,49.67
2022-11-12T18:43:03.704Z,48.78
2022-11-12T18:46:00.501Z,46.67
2022-11-12T18:48:47.539Z,41.95
2022-11-12T18:51:33.807Z,39.33
2022-11-12T18:54:19.941Z,38.70
2022-11-12T18:57:06.186Z,42.78
2022-11-12T18:59:55.105Z,39.13
2022-11-12T19:02:41.500Z,42.85
2022-11-12T19:05:27.265Z,43.15
2022-11-12T19:08:13.879Z,40.55
2022-11-12T19:11:01.258Z,41.67
2022-11-12T19:13:51.587Z,43.92
2022-11-12T19:16:42.617Z,37.70
2022-11-12T19:19:29.540Z,37.35
2022-11-12T19:22:15.246Z,52.53
2022-11-12T19:25:04.410Z,41.42
2022-11-12T19:27:50.596Z,42.47
2022-11-12T19:30:36.914Z,49.13
2022-11-12T19:33:23.391Z,66.70
2022-11-12T19:36:13.096Z,43.95
2022-11-12T19:39:00.297Z,46.25
2022-11-12T19:41:46.325Z,44.13
2022-11-12T19:44:32.374Z,44.00
2022-11-12T19:47:19.098Z,49.47
2022-11-12T19:50:05.613Z,48.78
2022-11-12T19:52:55.250Z,47.58
2022-11-12T19:55:41.217Z,58.42
2022-11-12T19:58:27.768Z,45.17
2022-11-12T20:01:16.397Z,45.47
2022-11-12T20:04:02.897Z,46.70
2022-11-12T20:06:48.767Z,46.90
2022-11-12T20:09:35.262Z,53.88
2022-11-12T20:12:21.527Z,50.45
2022-11-12T20:15:08.384Z,51.17
2022-11-12T20:17:54.191Z,52.15
2022-11-12T20:20:40.834Z,61.60
2022-11-12T20:23:27.240Z,61.28
2022-11-12T20:26:15.164Z,61.92
2022-11-12T20:29:01.305Z,66.40
2022-11-12T20:31:47.779Z,63.10
2022-11-12T20:34:33.701Z,59.50
2022-11-12T20:37:19.852Z,60.67
2022-11-12T20:40:06.295Z,62.78
2022-11-12T20:42:52.482Z,63.92
2022-11-12T20:45:38.477Z,63.03
2022-11-12T20:48:25.057Z,65.55
2022-11-12T20:51:24.736Z,62.60
2022-11-12T20:54:11.900Z,59.90
2022-11-12T20:57:00.150Z,67.93
2022-11-12T20:59:51.389Z,76.05
2022-11-12T21:02:37.772Z,68.00
2022-11-12T21:05:24.073Z,73.82
2022-11-12T21:08:09.902Z,70.82
2022-11-12T21:10:56.846Z,70.72
2022-11-12T21:13:43.265Z,75.80
2022-11-12T21:16:29.408Z,73.20
2022-11-12T21:19:15.195Z,74.28
2022-11-12T21:22:01.273Z,78.55
2022-11-12T21:24:47.099Z,77.47
2022-11-12T21:27:33.813Z,77.80
2022-11-12T21:30:20.074Z,77.88
2022-11-12T21:33:06.768Z,71.63
2022-11-12T21:35:53.539Z,75.93
2022-11-12T21:38:39.652Z,76.55
2022-11-12T21:41:28.239Z,87.65
2022-11-12T21:44:14.642Z,80.50
2022-11-12T21:47:00.847Z,88.07
2022-11-12T21:49:48.423Z,76.68
2022-11-12T21:52:35.095Z,80.68
2022-11-12T21:55:21.722Z,82.78
2022-11-12T21:58:08.146Z,80.50
2022-11-12T22:00:56.079Z,76.32
2022-11-12T22:03:42.360Z,92.57
2022-11-12T22:06:31.476Z,90.35
2022-11-12T22:09:17.973Z,90.68
2022-11-12T22:12:04.509Z,79.38
2022-11-12T22:14:50.875Z,86.60
2022-11-12T22:17:37.280Z,99.90
2022-11-12T22:20:23.278Z,91.40
2022-11-12T22:23:10.093Z,91.60
2022-11-12T22:26:00.091Z,87.45
2022-11-12T22:28:46.547Z,95.03
2022-11-12T22:31:33.098Z,97.00
2022-11-12T22:34:19.671Z,89.03
2022-11-12T22:37:05.824Z,89.95
2022-11-12T22:39:52.173Z,102.95
2022-11-12T22:42:38.172Z,92.30
2022-11-12T22:45:24.532Z,91.15
2022-11-12T22:48:10.669Z,88.57
2022-11-12T22:51:04.917Z,92.00
2022-11-12T22:53:55.741Z,99.53
2022-11-12T22:56:42.126Z,86.63
2022-11-12T22:59:28.391Z,88.78
2022-11-12T23:02:14.647Z,82.25
2022-11-12T23:05:01.189Z,81.15
2022-11-12T23:07:47.870Z,95.90
2022-11-12T23:10:33.457Z,88.93
2022-11-12T23:13:20.191Z,87.22
2022-11-12T23:16:09.368Z,92.55
2022-11-12T23:18:56.030Z,87.68
2022-11-12T23:21:41.844Z,88.75
2022-11-12T23:24:28.150Z,86.68
2022-11-12T23:27:14.378Z,83.43
2022-11-12T23:30:01.008Z,85.95
2022-11-12T23:32:46.942Z,89.78
2022-11-12T23:35:33.198Z,81.68
2022-11-12T23:38:19.142Z,83.28
2022-11-12T23:41:06.533Z,83.70
2022-11-12T23:43:54.106Z,82.95
2022-11-12T23:46:40.442Z,86.00
2022-11-12T23:49:26.479Z,81.40
2022-11-12T23:52:13.011Z,83.45
2022-11-12T23:54:59.027Z,79.60
2022-11-12T23:57:45.432Z,80.03
